Murzzuschlag, Austria
Current Conditions -  °F | °C
As of 3:20 PM on Saturday 01 Nov 2014 (Local Time) from LOWG Reporting Station
Clear Clear  
Wind Chill: 57°   Ceiling: Unl
Heat Index: 57°   Visibility: 6mi
Dew Point: 45°   Wind: 3mph
Humidity: 63%   Direction: 160°SSE
Pressure: 30.27"   Gusts: NA
Location:  47.61°N, 15.67°E
Report Text: LOWG 011320Z 16003KT 110V200 CAVOK 14/07 Q1025 NOSIG
Loading
Personal Weather Stations






























Interactive Weather Map
Tropical Storm Tracking
New forecast layout! Learn more

10-Day Weather Forecast

Advertisements
Track Severe Weather on mobile